sensor_id;sensor_type;location;lat;lon;timestamp;pressure;altitude;pressure_sealevel;temperature;humidity
14612;BME280;7392;52.078;11.650;2024-02-23T00:01:12;97707.16;;;10.79;94.66
14612;BME280;7392;52.078;11.650;2024-02-23T00:03:40;97712.63;;;10.76;93.90
14612;BME280;7392;52.078;11.650;2024-02-23T00:06:10;97729.50;;;10.75;92.50
14612;BME280;7392;52.078;11.650;2024-02-23T00:08:38;97749.53;;;10.81;88.91
14612;BME280;7392;52.078;11.650;2024-02-23T00:11:08;97743.59;;;10.76;87.85
14612;BME280;7392;52.078;11.650;2024-02-23T00:13:36;97717.88;;;10.78;85.94
14612;BME280;7392;52.078;11.650;2024-02-23T00:16:04;97784.53;;;10.72;83.45
14612;BME280;7392;52.078;11.650;2024-02-23T00:18:32;97783.25;;;10.61;83.82
14612;BME280;7392;52.078;11.650;2024-02-23T00:21:00;97780.75;;;10.58;81.38
14612;BME280;7392;52.078;11.650;2024-02-23T00:23:30;97805.88;;;10.51;79.62
14612;BME280;7392;52.078;11.650;2024-02-23T00:25:58;97812.34;;;10.45;79.97
14612;BME280;7392;52.078;11.650;2024-02-23T00:28:26;97848.25;;;10.34;80.49
14612;BME280;7392;52.078;11.650;2024-02-23T00:30:54;97840.47;;;10.29;79.47
14612;BME280;7392;52.078;11.650;2024-02-23T00:33:22;97836.59;;;10.17;79.83
14612;BME280;7392;52.078;11.650;2024-02-23T00:35:50;97870.50;;;10.10;79.62
14612;BME280;7392;52.078;11.650;2024-02-23T00:38:18;97861.25;;;10.00;81.89
14612;BME280;7392;52.078;11.650;2024-02-23T00:40:47;97870.41;;;9.93;82.96
14612;BME280;7392;52.078;11.650;2024-02-23T00:43:15;97878.69;;;9.85;83.57
14612;BME280;7392;52.078;11.650;2024-02-23T00:45:43;97877.38;;;9.75;84.57
14612;BME280;7392;52.078;11.650;2024-02-23T00:48:11;97885.69;;;9.67;85.54
14612;BME280;7392;52.078;11.650;2024-02-23T00:50:40;97886.81;;;9.62;83.49
14612;BME280;7392;52.078;11.650;2024-02-23T00:53:08;97893.16;;;9.58;84.33
14612;BME280;7392;52.078;11.650;2024-02-23T00:55:36;97894.53;;;9.46;84.30
14612;BME280;7392;52.078;11.650;2024-02-23T00:58:05;97875.63;;;9.34;84.05
14612;BME280;7392;52.078;11.650;2024-02-23T01:00:33;97885.59;;;9.28;81.70
14612;BME280;7392;52.078;11.650;2024-02-23T01:03:01;97895.72;;;9.18;80.98
14612;BME280;7392;52.078;11.650;2024-02-23T01:05:29;97893.38;;;9.10;80.28
14612;BME280;7392;52.078;11.650;2024-02-23T01:07:57;97914.19;;;8.97;80.67
14612;BME280;7392;52.078;11.650;2024-02-23T01:10:25;97925.63;;;8.98;78.94
14612;BME280;7392;52.078;11.650;2024-02-23T01:12:54;97932.28;;;8.86;79.29
14612;BME280;7392;52.078;11.650;2024-02-23T01:15:24;97932.47;;;8.82;78.41
14612;BME280;7392;52.078;11.650;2024-02-23T01:17:52;97937.22;;;8.73;79.04
14612;BME280;7392;52.078;11.650;2024-02-23T01:20:20;97950.50;;;8.72;78.11
14612;BME280;7392;52.078;11.650;2024-02-23T01:22:48;97962.19;;;8.66;79.56
14612;BME280;7392;52.078;11.650;2024-02-23T01:25:16;97984.19;;;8.67;78.99
14612;BME280;7392;52.078;11.650;2024-02-23T01:27:44;97983.56;;;8.60;79.97
14612;BME280;7392;52.078;11.650;2024-02-23T01:30:12;97994.50;;;8.51;81.19
14612;BME280;7392;52.078;11.650;2024-02-23T01:32:41;97993.81;;;8.46;81.79
14612;BME280;7392;52.078;11.650;2024-02-23T01:35:09;97991.22;;;8.44;82.26
14612;BME280;7392;52.078;11.650;2024-02-23T01:37:38;97989.66;;;8.37;82.27
14612;BME280;7392;52.078;11.650;2024-02-23T01:40:06;97985.47;;;8.31;83.58
14612;BME280;7392;52.078;11.650;2024-02-23T01:42:34;97997.00;;;8.30;82.94
14612;BME280;7392;52.078;11.650;2024-02-23T01:45:03;98003.34;;;8.24;83.65
14612;BME280;7392;52.078;11.650;2024-02-23T01:47:31;98017.59;;;8.20;83.17
14612;BME280;7392;52.078;11.650;2024-02-23T01:50:00;98022.03;;;8.20;82.30
14612;BME280;7392;52.078;11.650;2024-02-23T01:52:28;98044.84;;;8.22;80.99
14612;BME280;7392;52.078;11.650;2024-02-23T01:54:57;98029.84;;;8.23;80.08
14612;BME280;7392;52.078;11.650;2024-02-23T01:57:27;98049.19;;;8.25;79.65
14612;BME280;7392;52.078;11.650;2024-02-23T02:00:16;98061.47;;;8.26;78.49
14612;BME280;7392;52.078;11.650;2024-02-23T02:02:51;98070.38;;;8.23;78.29
14612;BME280;7392;52.078;11.650;2024-02-23T02:05:22;98065.19;;;8.20;78.57
14612;BME280;7392;52.078;11.650;2024-02-23T02:07:51;98054.78;;;8.16;78.36
14612;BME280;7392;52.078;11.650;2024-02-23T02:10:25;98054.78;;;8.16;77.84
14612;BME280;7392;52.078;11.650;2024-02-23T02:12:54;98057.47;;;8.14;77.91
14612;BME280;7392;52.078;11.650;2024-02-23T02:15:21;98054.91;;;8.11;77.86
14612;BME280;7392;52.078;11.650;2024-02-23T02:17:49;98060.28;;;8.10;77.92
14612;BME280;7392;52.078;11.650;2024-02-23T02:20:18;98062.75;;;8.14;77.17
14612;BME280;7392;52.078;11.650;2024-02-23T02:22:47;98080.13;;;8.21;76.74
14612;BME280;7392;52.078;11.650;2024-02-23T02:25:15;98075.78;;;8.20;75.99
14612;BME280;7392;52.078;11.650;2024-02-23T02:27:42;98101.56;;;8.14;76.86
14612;BME280;7392;52.078;11.650;2024-02-23T02:30:12;98103.91;;;8.21;75.79
14612;BME280;7392;52.078;11.650;2024-02-23T02:32:40;98107.66;;;8.16;76.13
14612;BME280;7392;52.078;11.650;2024-02-23T02:35:10;98123.56;;;8.14;76.40
14612;BME280;7392;52.078;11.650;2024-02-23T02:37:39;98130.47;;;8.18;76.43
14612;BME280;7392;52.078;11.650;2024-02-23T02:40:09;98120.19;;;8.09;77.14
14612;BME280;7392;52.078;11.650;2024-02-23T02:42:37;98137.94;;;8.05;77.38
14612;BME280;7392;52.078;11.650;2024-02-23T02:45:05;98150.00;;;8.14;76.55
14612;BME280;7392;52.078;11.650;2024-02-23T02:47:33;98179.06;;;8.14;75.26
14612;BME280;7392;52.078;11.650;2024-02-23T02:50:04;98156.34;;;8.09;75.44
14612;BME280;7392;52.078;11.650;2024-02-23T02:52:33;98149.50;;;8.03;76.43
14612;BME280;7392;52.078;11.650;2024-02-23T02:55:02;98156.00;;;7.93;77.07
14612;BME280;7392;52.078;11.650;2024-02-23T02:57:31;98157.81;;;7.91;76.67
14612;BME280;7392;52.078;11.650;2024-02-23T02:59:59;98175.72;;;7.82;76.38
14612;BME280;7392;52.078;11.650;2024-02-23T03:02:27;98212.09;;;7.73;77.32
14612;BME280;7392;52.078;11.650;2024-02-23T03:04:55;98192.84;;;7.69;75.73
14612;BME280;7392;52.078;11.650;2024-02-23T03:07:23;98205.28;;;7.65;74.04
14612;BME280;7392;52.078;11.650;2024-02-23T03:09:51;98207.28;;;7.57;75.16
14612;BME280;7392;52.078;11.650;2024-02-23T03:12:19;98216.06;;;7.58;74.07
14612;BME280;7392;52.078;11.650;2024-02-23T03:14:48;98233.09;;;7.47;75.43
14612;BME280;7392;52.078;11.650;2024-02-23T03:17:16;98241.97;;;7.46;75.72
14612;BME280;7392;52.078;11.650;2024-02-23T03:19:44;98242.97;;;7.41;76.59
14612;BME280;7392;52.078;11.650;2024-02-23T03:22:12;98240.63;;;7.32;77.51
14612;BME280;7392;52.078;11.650;2024-02-23T03:24:40;98251.34;;;7.25;78.26
14612;BME280;7392;52.078;11.650;2024-02-23T03:27:08;98258.56;;;7.19;79.26
14612;BME280;7392;52.078;11.650;2024-02-23T03:29:37;98279.75;;;7.16;79.59
14612;BME280;7392;52.078;11.650;2024-02-23T03:32:07;98282.53;;;7.11;79.65
14612;BME280;7392;52.078;11.650;2024-02-23T03:34:35;98286.03;;;7.11;79.49
14612;BME280;7392;52.078;11.650;2024-02-23T03:37:03;98308.03;;;7.10;78.39
14612;BME280;7392;52.078;11.650;2024-02-23T03:39:31;98315.16;;;7.08;78.75
14612;BME280;7392;52.078;11.650;2024-02-23T03:41:59;98331.94;;;7.06;78.93
14612;BME280;7392;52.078;11.650;2024-02-23T03:44:27;98332.88;;;7.03;78.82
14612;BME280;7392;52.078;11.650;2024-02-23T03:46:55;98331.16;;;7.02;79.39
14612;BME280;7392;52.078;11.650;2024-02-23T03:49:25;98340.03;;;6.98;79.66
14612;BME280;7392;52.078;11.650;2024-02-23T03:51:52;98355.91;;;6.97;78.39
14612;BME280;7392;52.078;11.650;2024-02-23T03:54:20;98356.06;;;6.92;78.43
14612;BME280;7392;52.078;11.650;2024-02-23T03:56:48;98362.28;;;6.88;79.07
14612;BME280;7392;52.078;11.650;2024-02-23T03:59:17;98373.06;;;6.80;79.65
14612;BME280;7392;52.078;11.650;2024-02-23T04:01:44;98378.56;;;6.69;80.60
14612;BME280;7392;52.078;11.650;2024-02-23T04:04:13;98393.63;;;6.64;81.25
14612;BME280;7392;52.078;11.650;2024-02-23T04:06:42;98391.19;;;6.57;81.71
14612;BME280;7392;52.078;11.650;2024-02-23T04:09:10;98401.03;;;6.48;82.52
14612;BME280;7392;52.078;11.650;2024-02-23T04:11:38;98398.59;;;6.41;83.11
14612;BME280;7392;52.078;11.650;2024-02-23T04:14:06;98406.59;;;6.36;83.14
14612;BME280;7392;52.078;11.650;2024-02-23T04:16:33;98402.25;;;6.33;83.25
14612;BME280;7392;52.078;11.650;2024-02-23T04:19:01;98407.59;;;6.30;83.04
14612;BME280;7392;52.078;11.650;2024-02-23T04:21:29;98414.84;;;6.21;83.61
14612;BME280;7392;52.078;11.650;2024-02-23T04:23:58;98421.94;;;6.17;82.86
14612;BME280;7392;52.078;11.650;2024-02-23T04:26:26;98430.00;;;6.09;82.99
14612;BME280;7392;52.078;11.650;2024-02-23T04:28:55;98438.88;;;6.05;83.44
14612;BME280;7392;52.078;11.650;2024-02-23T04:31:23;98438.06;;;6.02;82.45
14612;BME280;7392;52.078;11.650;2024-02-23T04:33:50;98441.66;;;5.97;82.28
14612;BME280;7392;52.078;11.650;2024-02-23T04:36:19;98441.78;;;5.90;82.42
14612;BME280;7392;52.078;11.650;2024-02-23T04:38:47;98441.00;;;5.85;83.17
14612;BME280;7392;52.078;11.650;2024-02-23T04:41:19;98454.22;;;5.81;82.94
14612;BME280;7392;52.078;11.650;2024-02-23T04:43:47;98463.13;;;5.76;83.22
14612;BME280;7392;52.078;11.650;2024-02-23T04:46:15;98465.84;;;5.71;84.26
14612;BME280;7392;52.078;11.650;2024-02-23T04:48:43;98471.97;;;5.72;84.21
14612;BME280;7392;52.078;11.650;2024-02-23T04:51:11;98476.47;;;5.65;85.00
14612;BME280;7392;52.078;11.650;2024-02-23T04:53:39;98474.84;;;5.58;85.07
14612;BME280;7392;52.078;11.650;2024-02-23T04:56:07;98479.34;;;5.51;86.22
14612;BME280;7392;52.078;11.650;2024-02-23T04:58:36;98477.72;;;5.46;86.61
14612;BME280;7392;52.078;11.650;2024-02-23T05:01:05;98482.19;;;5.40;87.27
14612;BME280;7392;52.078;11.650;2024-02-23T05:03:33;98481.41;;;5.35;87.72
14612;BME280;7392;52.078;11.650;2024-02-23T05:06:02;98498.16;;;5.30;88.29
14612;BME280;7392;52.078;11.650;2024-02-23T05:08:30;98509.66;;;5.24;88.68
14612;BME280;7392;52.078;11.650;2024-02-23T05:10:58;98515.88;;;5.18;89.45
14612;BME280;7392;52.078;11.650;2024-02-23T05:13:26;98511.63;;;5.11;89.67
14612;BME280;7392;52.078;11.650;2024-02-23T05:15:56;98520.44;;;5.07;90.77
14612;BME280;7392;52.078;11.650;2024-02-23T05:18:24;98525.78;;;5.02;91.10
14612;BME280;7392;52.078;11.650;2024-02-23T05:20:53;98525.84;;;4.98;91.35
14612;BME280;7392;52.078;11.650;2024-02-23T05:23:21;98532.94;;;4.93;91.70
14612;BME280;7392;52.078;11.650;2024-02-23T05:25:49;98545.25;;;4.89;91.83
14612;BME280;7392;52.078;11.650;2024-02-23T05:28:17;98540.97;;;4.82;92.14
14612;BME280;7392;52.078;11.650;2024-02-23T05:30:45;98554.19;;;4.77;92.01
14612;BME280;7392;52.078;11.650;2024-02-23T05:33:14;98563.91;;;4.72;93.09
14612;BME280;7392;52.078;11.650;2024-02-23T05:35:42;98570.97;;;4.68;93.41
14612;BME280;7392;52.078;11.650;2024-02-23T05:38:11;98564.88;;;4.65;92.96
14612;BME280;7392;52.078;11.650;2024-02-23T05:40:40;98581.53;;;4.62;93.72
14612;BME280;7392;52.078;11.650;2024-02-23T05:43:08;98580.75;;;4.56;93.88
14612;BME280;7392;52.078;11.650;2024-02-23T05:45:36;98579.91;;;4.54;94.50
14612;BME280;7392;52.078;11.650;2024-02-23T05:48:04;98581.69;;;4.50;94.52
14612;BME280;7392;52.078;11.650;2024-02-23T05:50:34;98582.59;;;4.47;94.56
14612;BME280;7392;52.078;11.650;2024-02-23T05:53:02;98578.25;;;4.43;93.96
14612;BME280;7392;52.078;11.650;2024-02-23T05:55:31;98605.41;;;4.44;93.98
14612;BME280;7392;52.078;11.650;2024-02-23T05:57:59;98607.22;;;4.39;93.11
14612;BME280;7392;52.078;11.650;2024-02-23T06:00:27;98620.41;;;4.36;92.89
14612;BME280;7392;52.078;11.650;2024-02-23T06:02:56;98617.84;;;4.31;93.01
14612;BME280;7392;52.078;11.650;2024-02-23T06:05:24;98628.38;;;4.28;92.43
14612;BME280;7392;52.078;11.650;2024-02-23T06:07:56;98627.53;;;4.24;92.88
14612;BME280;7392;52.078;11.650;2024-02-23T06:10:24;98623.22;;;4.19;92.57
14612;BME280;7392;52.078;11.650;2024-02-23T06:12:52;98624.09;;;4.16;92.24
14612;BME280;7392;52.078;11.650;2024-02-23T06:15:22;98621.50;;;4.15;91.48
14612;BME280;7392;52.078;11.650;2024-02-23T06:17:50;98628.50;;;4.14;90.97
14612;BME280;7392;52.078;11.650;2024-02-23T06:20:19;98623.28;;;4.11;90.45
14612;BME280;7392;52.078;11.650;2024-02-23T06:22:47;98635.56;;;4.09;90.87
14612;BME280;7392;52.078;11.650;2024-02-23T06:25:16;98645.19;;;4.10;90.37
14612;BME280;7392;52.078;11.650;2024-02-23T06:27:44;98647.84;;;4.10;89.62
14612;BME280;7392;52.078;11.650;2024-02-23T06:30:12;98640.81;;;4.10;89.48
14612;BME280;7392;52.078;11.650;2024-02-23T06:32:40;98646.94;;;4.11;89.35
14612;BME280;7392;52.078;11.650;2024-02-23T06:35:09;98658.28;;;4.11;89.39
14612;BME280;7392;52.078;11.650;2024-02-23T06:37:38;98667.06;;;4.12;89.10
14612;BME280;7392;52.078;11.650;2024-02-23T06:40:07;98669.72;;;4.10;88.73
14612;BME280;7392;52.078;11.650;2024-02-23T06:42:36;98660.09;;;4.08;89.26
14612;BME280;7392;52.078;11.650;2024-02-23T06:45:05;98667.97;;;4.06;89.96
14612;BME280;7392;52.078;11.650;2024-02-23T06:47:34;98661.88;;;4.04;90.08
14612;BME280;7392;52.078;11.650;2024-02-23T06:50:04;98668.03;;;4.03;90.86
14612;BME280;7392;52.078;11.650;2024-02-23T06:52:32;98670.66;;;4.03;92.42
14612;BME280;7392;52.078;11.650;2024-02-23T06:55:00;98667.13;;;4.04;93.98
14612;BME280;7392;52.078;11.650;2024-02-23T06:57:28;98661.00;;;4.05;95.05
14612;BME280;7392;52.078;11.650;2024-02-23T06:59:59;98669.75;;;4.06;95.46
14612;BME280;7392;52.078;11.650;2024-02-23T07:02:27;98668.88;;;4.05;96.11
14612;BME280;7392;52.078;11.650;2024-02-23T07:04:58;98668.03;;;4.05;96.11
14612;BME280;7392;52.078;11.650;2024-02-23T07:07:26;98680.25;;;4.04;96.33
14612;BME280;7392;52.078;11.650;2024-02-23T07:09:55;98672.38;;;4.03;96.66
14612;BME280;7392;52.078;11.650;2024-02-23T07:12:23;98689.06;;;4.02;96.34
14612;BME280;7392;52.078;11.650;2024-02-23T07:14:51;98697.81;;;4.01;96.41
14612;BME280;7392;52.078;11.650;2024-02-23T07:17:20;98694.31;;;4.00;96.44
14612;BME280;7392;52.078;11.650;2024-02-23T07:19:48;98712.69;;;4.00;95.64
14612;BME280;7392;52.078;11.650;2024-02-23T07:22:17;98715.34;;;3.99;95.89
14612;BME280;7392;52.078;11.650;2024-02-23T07:24:46;98717.09;;;3.98;95.20
14612;BME280;7392;52.078;11.650;2024-02-23T07:27:16;98728.47;;;3.99;95.88
14612;BME280;7392;52.078;11.650;2024-02-23T07:29:43;98730.25;;;3.98;95.72
14612;BME280;7392;52.078;11.650;2024-02-23T07:32:12;98741.59;;;4.00;95.62
14612;BME280;7392;52.078;11.650;2024-02-23T07:34:42;98751.19;;;4.01;95.61
14612;BME280;7392;52.078;11.650;2024-02-23T07:37:10;98759.06;;;4.03;95.22
14612;BME280;7392;52.078;11.650;2024-02-23T07:39:38;98767.84;;;4.05;95.57
14612;BME280;7392;52.078;11.650;2024-02-23T07:42:06;98767.81;;;4.06;95.94
14612;BME280;7392;52.078;11.650;2024-02-23T07:44:36;98769.56;;;4.06;95.56
14612;BME280;7392;52.078;11.650;2024-02-23T07:47:05;98780.06;;;4.07;96.00
14612;BME280;7392;52.078;11.650;2024-02-23T07:49:33;98780.94;;;4.09;95.16
14612;BME280;7392;52.078;11.650;2024-02-23T07:52:03;98792.28;;;4.11;95.18
14612;BME280;7392;52.078;11.650;2024-02-23T07:54:30;98790.56;;;4.12;95.07
14612;BME280;7392;52.078;11.650;2024-02-23T07:56:58;98786.16;;;4.12;95.17
14612;BME280;7392;52.078;11.650;2024-02-23T07:59:26;98796.66;;;4.14;95.12
14612;BME280;7392;52.078;11.650;2024-02-23T08:01:55;98798.38;;;4.20;95.13
14612;BME280;7392;52.078;11.650;2024-02-23T08:04:23;98815.00;;;4.22;95.13
14612;BME280;7392;52.078;11.650;2024-02-23T08:06:51;98816.75;;;4.24;94.85
14612;BME280;7392;52.078;11.650;2024-02-23T08:09:20;98821.06;;;4.28;93.86
14612;BME280;7392;52.078;11.650;2024-02-23T08:11:50;98810.56;;;4.31;94.37
14612;BME280;7392;52.078;11.650;2024-02-23T08:14:19;98808.75;;;4.37;93.45
14612;BME280;7392;52.078;11.650;2024-02-23T08:16:46;98811.38;;;4.40;93.30
14612;BME280;7392;52.078;11.650;2024-02-23T08:19:16;98818.34;;;4.44;92.13
14612;BME280;7392;52.078;11.650;2024-02-23T08:21:43;98817.44;;;4.48;92.40
14612;BME280;7392;52.078;11.650;2024-02-23T08:24:11;98820.00;;;4.56;91.56
14612;BME280;7392;52.078;11.650;2024-02-23T08:26:40;98819.09;;;4.60;91.32
14612;BME280;7392;52.078;11.650;2024-02-23T08:29:09;98817.31;;;4.63;91.29
14612;BME280;7392;52.078;11.650;2024-02-23T08:31:37;98816.41;;;4.64;91.12
14612;BME280;7392;52.078;11.650;2024-02-23T08:34:08;98811.13;;;4.69;91.03
14612;BME280;7392;52.078;11.650;2024-02-23T08:36:36;98811.13;;;4.71;90.66
14612;BME280;7392;52.078;11.650;2024-02-23T08:39:04;98810.19;;;4.75;90.63
14612;BME280;7392;52.078;11.650;2024-02-23T08:41:32;98808.44;;;4.77;89.51
14612;BME280;7392;52.078;11.650;2024-02-23T08:44:01;98820.69;;;4.78;90.19
14612;BME280;7392;52.078;11.650;2024-02-23T08:46:29;98808.38;;;4.81;88.66
14612;BME280;7392;52.078;11.650;2024-02-23T08:48:57;98795.19;;;4.86;88.57
14612;BME280;7392;52.078;11.650;2024-02-23T08:51:25;98800.38;;;4.94;87.54
14612;BME280;7392;52.078;11.650;2024-02-23T08:53:53;98801.09;;;5.08;86.82
14612;BME280;7392;52.078;11.650;2024-02-23T08:56:26;98799.19;;;5.21;86.59
14612;BME280;7392;52.078;11.650;2024-02-23T08:58:54;98793.81;;;5.32;84.87
14612;BME280;7392;52.078;11.650;2024-02-23T09:01:23;98786.72;;;5.40;85.60
14612;BME280;7392;52.078;11.650;2024-02-23T09:03:51;98782.13;;;5.54;84.76
14612;BME280;7392;52.078;11.650;2024-02-23T09:06:19;98783.72;;;5.68;83.97
14612;BME280;7392;52.078;11.650;2024-02-23T09:08:47;98798.47;;;5.81;83.10
14612;BME280;7392;52.078;11.650;2024-02-23T09:11:15;98800.09;;;5.90;81.86
14612;BME280;7392;52.078;11.650;2024-02-23T09:13:43;98810.56;;;5.97;81.31
14612;BME280;7392;52.078;11.650;2024-02-23T09:16:11;98798.94;;;6.11;80.61
14612;BME280;7392;52.078;11.650;2024-02-23T09:18:41;98798.88;;;6.15;80.25
14612;BME280;7392;52.078;11.650;2024-02-23T09:21:09;98808.47;;;6.20;80.10
14612;BME280;7392;52.078;11.650;2024-02-23T09:23:37;98818.97;;;6.24;80.13
14612;BME280;7392;52.078;11.650;2024-02-23T09:26:08;98831.19;;;6.28;79.97
14612;BME280;7392;52.078;11.650;2024-02-23T09:28:37;98837.28;;;6.32;79.78
14612;BME280;7392;52.078;11.650;2024-02-23T09:31:07;98840.78;;;6.35;79.25
14612;BME280;7392;52.078;11.650;2024-02-23T09:33:35;98853.00;;;6.40;78.86
14612;BME280;7392;52.078;11.650;2024-02-23T09:36:05;98852.94;;;6.44;78.21
14612;BME280;7392;52.078;11.650;2024-02-23T09:38:33;98855.47;;;6.50;78.51
14612;BME280;7392;52.078;11.650;2024-02-23T09:41:01;98862.44;;;6.56;75.73
14612;BME280;7392;52.078;11.650;2024-02-23T09:43:30;98862.31;;;6.62;77.05
14612;BME280;7392;52.078;11.650;2024-02-23T09:45:59;98863.91;;;6.72;78.15
14612;BME280;7392;52.078;11.650;2024-02-23T09:48:28;98861.13;;;6.83;77.94
14612;BME280;7392;52.078;11.650;2024-02-23T09:50:57;98854.84;;;6.90;76.78
14612;BME280;7392;52.078;11.650;2024-02-23T09:53:27;98860.88;;;6.97;75.55
14612;BME280;7392;52.078;11.650;2024-02-23T09:55:56;98858.94;;;7.05;75.00
14612;BME280;7392;52.078;11.650;2024-02-23T09:58:26;98858.81;;;7.15;75.10
14612;BME280;7392;52.078;11.650;2024-02-23T10:00:58;98861.16;;;7.30;75.97
14612;BME280;7392;52.078;11.650;2024-02-23T10:03:27;98864.47;;;7.41;76.14
14612;BME280;7392;52.078;11.650;2024-02-23T10:05:57;98860.78;;;7.50;74.25
14612;BME280;7392;52.078;11.650;2024-02-23T10:08:28;98854.44;;;7.60;73.67
14612;BME280;7392;52.078;11.650;2024-02-23T10:10:56;98867.38;;;7.73;72.81
14612;BME280;7392;52.078;11.650;2024-02-23T10:13:24;98863.72;;;7.78;71.74
14612;BME280;7392;52.078;11.650;2024-02-23T10:15:53;98882.06;;;7.88;71.98
14612;BME280;7392;52.078;11.650;2024-02-23T10:18:40;98866.06;;;7.94;69.31
14612;BME280;7392;52.078;11.650;2024-02-23T10:21:08;98885.25;;;8.03;70.51
14612;BME280;7392;52.078;11.650;2024-02-23T10:23:37;98882.50;;;8.08;68.54
14612;BME280;7392;52.078;11.650;2024-02-23T10:26:06;98877.09;;;8.13;68.58
14612;BME280;7392;52.078;11.650;2024-02-23T10:28:35;98883.13;;;8.19;68.60
14612;BME280;7392;52.078;11.650;2024-02-23T10:31:05;98877.78;;;8.22;68.75
14612;BME280;7392;52.078;11.650;2024-02-23T10:33:38;98877.56;;;8.32;67.65
14612;BME280;7392;52.078;11.650;2024-02-23T10:36:07;98880.09;;;8.38;66.42
14612;BME280;7392;52.078;11.650;2024-02-23T10:38:38;98888.81;;;8.43;67.74
14612;BME280;7392;52.078;11.650;2024-02-23T10:41:07;98900.97;;;8.52;68.10
14612;BME280;7392;52.078;11.650;2024-02-23T10:43:41;98901.72;;;8.57;66.56
14612;BME280;7392;52.078;11.650;2024-02-23T10:46:12;98891.94;;;8.60;67.49
14612;BME280;7392;52.078;11.650;2024-02-23T10:48:41;98889.19;;;8.65;64.33
14612;BME280;7392;52.078;11.650;2024-02-23T10:51:10;98895.34;;;8.66;63.39
14612;BME280;7392;52.078;11.650;2024-02-23T10:53:43;98900.59;;;8.67;63.89
14612;BME280;7392;52.078;11.650;2024-02-23T10:56:11;98901.50;;;8.68;61.98
14612;BME280;7392;52.078;11.650;2024-02-23T10:58:39;98903.13;;;8.73;62.81
14612;BME280;7392;52.078;11.650;2024-02-23T11:01:08;98903.06;;;8.76;64.58
14612;BME280;7392;52.078;11.650;2024-02-23T11:03:38;98908.19;;;8.83;65.77
14612;BME280;7392;52.078;11.650;2024-02-23T11:06:06;98903.66;;;8.88;64.73
14612;BME280;7392;52.078;11.650;2024-02-23T11:08:35;98907.84;;;8.96;63.83
14612;BME280;7392;52.078;11.650;2024-02-23T11:11:10;98907.81;;;8.98;58.72
14612;BME280;7392;52.078;11.650;2024-02-23T11:13:40;98908.50;;;9.06;62.78
14612;BME280;7392;52.078;11.650;2024-02-23T11:16:08;98911.03;;;9.11;60.07
14612;BME280;7392;52.078;11.650;2024-02-23T11:18:39;98912.66;;;9.16;60.59
14612;BME280;7392;52.078;11.650;2024-02-23T11:21:09;98904.69;;;9.16;61.51
14612;BME280;7392;52.078;11.650;2024-02-23T11:23:41;98910.69;;;9.25;61.00
14612;BME280;7392;52.078;11.650;2024-02-23T11:26:11;98898.25;;;9.27;63.78
14612;BME280;7392;52.078;11.650;2024-02-23T11:28:43;98902.75;;;9.23;64.79
14612;BME280;7392;52.078;11.650;2024-02-23T11:31:12;98895.09;;;9.12;65.02
14612;BME280;7392;52.078;11.650;2024-02-23T11:33:47;98896.25;;;9.02;65.57
14612;BME280;7392;52.078;11.650;2024-02-23T11:36:22;98895.56;;;8.94;66.26
14612;BME280;7392;52.078;11.650;2024-02-23T11:38:54;98891.22;;;8.90;65.75
14612;BME280;7392;52.078;11.650;2024-02-23T11:41:25;98879.97;;;8.82;65.57
14612;BME280;7392;52.078;11.650;2024-02-23T11:43:55;98890.38;;;8.89;65.30
14612;BME280;7392;52.078;11.650;2024-02-23T11:46:24;98883.94;;;8.99;65.43
14612;BME280;7392;52.078;11.650;2024-02-23T11:48:52;98893.28;;;9.14;66.02
14612;BME280;7392;52.078;11.650;2024-02-23T11:51:21;98880.53;;;9.29;65.24
14612;BME280;7392;52.078;11.650;2024-02-23T11:53:50;98884.53;;;9.45;64.67
14612;BME280;7392;52.078;11.650;2024-02-23T11:56:19;98886.06;;;9.54;62.97
14612;BME280;7392;52.078;11.650;2024-02-23T11:58:48;98897.31;;;9.62;59.71
14612;BME280;7392;52.078;11.650;2024-02-23T12:01:16;98893.84;;;9.60;57.27
14612;BME280;7392;52.078;11.650;2024-02-23T12:03:45;98902.81;;;9.54;57.22
14612;BME280;7392;52.078;11.650;2024-02-23T12:06:14;98908.25;;;9.50;57.81
14612;BME280;7392;52.078;11.650;2024-02-23T12:08:43;98903.00;;;9.48;59.02
14612;BME280;7392;52.078;11.650;2024-02-23T12:11:13;98906.75;;;9.40;58.07
14612;BME280;7392;52.078;11.650;2024-02-23T12:13:42;98913.72;;;9.44;60.71
14612;BME280;7392;52.078;11.650;2024-02-23T12:16:14;98906.41;;;9.53;61.08
14612;BME280;7392;52.078;11.650;2024-02-23T12:18:42;98903.25;;;9.72;59.43
14612;BME280;7392;52.078;11.650;2024-02-23T12:21:10;98918.13;;;9.76;57.61
14612;BME280;7392;52.078;11.650;2024-02-23T12:23:41;98928.00;;;9.71;54.10
14612;BME280;7392;52.078;11.650;2024-02-23T12:26:12;98926.28;;;9.68;55.90
14612;BME280;7392;52.078;11.650;2024-02-23T12:28:41;98924.44;;;9.72;55.98
14612;BME280;7392;52.078;11.650;2024-02-23T12:31:09;98927.69;;;9.82;54.13
14612;BME280;7392;52.078;11.650;2024-02-23T12:33:39;98931.03;;;9.88;55.50
14612;BME280;7392;52.078;11.650;2024-02-23T12:36:08;98921.19;;;9.93;55.48
14612;BME280;7392;52.078;11.650;2024-02-23T12:38:38;98933.34;;;10.01;57.42
14612;BME280;7392;52.078;11.650;2024-02-23T12:41:06;98923.66;;;10.00;53.74
14612;BME280;7392;52.078;11.650;2024-02-23T12:43:34;98927.09;;;10.03;56.43
14612;BME280;7392;52.078;11.650;2024-02-23T12:46:06;98922.69;;;10.02;54.83
14612;BME280;7392;52.078;11.650;2024-02-23T12:48:35;98925.72;;;9.90;53.85
14612;BME280;7392;52.078;11.650;2024-02-23T12:51:05;98925.81;;;9.85;54.56
14612;BME280;7392;52.078;11.650;2024-02-23T12:53:34;98914.47;;;9.80;54.41
14612;BME280;7392;52.078;11.650;2024-02-23T12:56:04;98914.66;;;9.74;56.12
14612;BME280;7392;52.078;11.650;2024-02-23T12:58:33;98919.81;;;9.79;56.21
14612;BME280;7392;52.078;11.650;2024-02-23T13:01:01;98928.75;;;9.76;56.27
14612;BME280;7392;52.078;11.650;2024-02-23T13:03:30;98924.38;;;9.73;57.13
14612;BME280;7392;52.078;11.650;2024-02-23T13:05:58;98926.28;;;9.68;56.62
14612;BME280;7392;52.078;11.650;2024-02-23T13:08:28;98921.81;;;9.72;57.62
14612;BME280;7392;52.078;11.650;2024-02-23T13:10:57;98918.28;;;9.70;56.26
14612;BME280;7392;52.078;11.650;2024-02-23T13:13:25;98905.94;;;9.70;57.12
14612;BME280;7392;52.078;11.650;2024-02-23T13:15:53;98907.81;;;9.67;59.54
14612;BME280;7392;52.078;11.650;2024-02-23T13:18:22;98904.22;;;9.68;58.62